createdAt,value
2023-03-30T00:01:17.532Z,66.52
2023-03-30T00:04:23.296Z,67.69
2023-03-30T00:07:26.076Z,66.81
2023-03-30T00:10:29.925Z,65.69
2023-03-30T00:13:34.706Z,64.67
2023-03-30T00:16:37.875Z,65.92
2023-03-30T00:19:40.800Z,64.81
2023-03-30T00:22:45.173Z,65.02
2023-03-30T00:25:47.832Z,65.95
2023-03-30T00:28:50.581Z,66.72
2023-03-30T00:31:53.660Z,67.95
2023-03-30T00:34:56.417Z,66.89
2023-03-30T00:38:01.834Z,67.50
2023-03-30T00:41:04.807Z,67.62
2023-03-30T00:44:10.130Z,66.54
2023-03-30T00:47:13.130Z,66.62
2023-03-30T00:50:18.147Z,66.68
2023-03-30T00:53:28.338Z,68.37
2023-03-30T00:56:31.661Z,67.45
2023-03-30T00:59:35.108Z,67.60
2023-03-30T01:02:46.683Z,66.80
2023-03-30T01:05:50.852Z,67.15
2023-03-30T01:08:53.700Z,66.53
2023-03-30T01:11:56.794Z,67.55
2023-03-30T01:15:00.478Z,67.42
2023-03-30T01:18:11.728Z,68.43
2023-03-30T01:21:17.405Z,68.16
2023-03-30T01:24:49.592Z,68.27
2023-03-30T01:27:52.188Z,68.14
2023-03-30T01:31:26.068Z,69.44
2023-03-30T01:34:38.156Z,69.07
2023-03-30T01:37:56.554Z,69.03
2023-03-30T01:41:00.456Z,68.58
2023-03-30T01:44:09.029Z,69.49
2023-03-30T01:47:30.294Z,69.75
2023-03-30T01:50:38.555Z,68.91
2023-03-30T01:54:00.869Z,69.88
2023-03-30T01:57:12.016Z,69.60
2023-03-30T02:00:18.102Z,69.40
2023-03-30T02:03:32.140Z,69.87
2023-03-30T02:06:41.190Z,69.21
2023-03-30T02:09:44.694Z,69.41
2023-03-30T02:12:47.961Z,68.96
2023-03-30T02:15:58.342Z,67.79
2023-03-30T02:19:01.649Z,68.47
2023-03-30T02:22:06.561Z,68.77
2023-03-30T02:25:09.648Z,69.70
2023-03-30T02:28:12.487Z,70.14
2023-03-30T02:31:16.433Z,70.66
2023-03-30T02:35:01.793Z,70.71
2023-03-30T02:38:07.933Z,69.75
2023-03-30T02:41:31.959Z,70.03
2023-03-30T02:44:37.486Z,70.54
2023-03-30T02:47:43.290Z,70.71
2023-03-30T02:50:51.209Z,70.37
2023-03-30T02:54:30.507Z,71.43
2023-03-30T02:57:56.675Z,71.04
2023-03-30T03:01:36.760Z,71.55
2023-03-30T03:04:53.281Z,69.91
2023-03-30T03:08:15.003Z,69.65
2023-03-30T03:11:18.870Z,72.39
2023-03-30T03:14:21.564Z,70.58
2023-03-30T03:17:24.934Z,70.52
2023-03-30T03:20:30.788Z,70.36
2023-03-30T03:23:36.569Z,71.96
2023-03-30T03:26:40.924Z,70.45
2023-03-30T03:29:43.724Z,70.49
2023-03-30T03:32:46.908Z,70.14
2023-03-30T03:35:54.598Z,70.23
2023-03-30T03:38:59.311Z,71.23
2023-03-30T03:42:05.008Z,72.25
2023-03-30T03:45:09.116Z,70.82
2023-03-30T03:48:15.984Z,71.81
2023-03-30T03:51:24.561Z,70.92
2023-03-30T03:54:27.215Z,70.36
2023-03-30T03:57:30.017Z,69.83
2023-03-30T04:00:34.205Z,70.16
2023-03-30T04:03:37.308Z,71.19
2023-03-30T04:06:40.287Z,70.88
2023-03-30T04:09:44.268Z,72.00
2023-03-30T04:13:14.243Z,71.61
2023-03-30T04:16:22.574Z,71.44
2023-03-30T04:19:47.703Z,71.83
2023-03-30T04:23:02.201Z,71.83
2023-03-30T04:26:23.702Z,72.16
2023-03-30T04:29:33.030Z,72.19
2023-03-30T04:33:04.028Z,72.46
2023-03-30T04:36:22.557Z,71.58
2023-03-30T04:39:51.572Z,72.63
2023-03-30T04:43:14.795Z,72.47
2023-03-30T04:46:30.114Z,73.11
2023-03-30T04:49:42.116Z,72.14
2023-03-30T04:53:17.282Z,71.76
2023-03-30T04:56:35.244Z,71.49
2023-03-30T04:59:54.585Z,73.37
2023-03-30T05:03:18.489Z,71.20
2023-03-30T05:06:42.434Z,73.25
2023-03-30T05:09:47.788Z,74.18
2023-03-30T05:13:08.861Z,73.46
2023-03-30T05:16:34.925Z,72.89
2023-03-30T05:20:10.702Z,74.43
2023-03-30T05:23:32.061Z,75.35
2023-03-30T05:26:54.455Z,75.51
2023-03-30T05:30:15.882Z,75.68
2023-03-30T05:33:37.341Z,75.17
2023-03-30T05:36:55.188Z,73.82
2023-03-30T05:40:23.894Z,72.51
2023-03-30T05:43:41.741Z,74.33
2023-03-30T05:47:04.956Z,73.24
2023-03-30T05:50:18.796Z,74.98
2023-03-30T05:53:34.881Z,72.29
2023-03-30T05:56:55.731Z,72.33
2023-03-30T06:00:14.339Z,70.02
2023-03-30T06:03:28.365Z,69.03
2023-03-30T06:06:31.501Z,68.76
2023-03-30T06:09:35.140Z,69.41
2023-03-30T06:12:44.683Z,68.67
2023-03-30T06:16:03.648Z,69.63
2023-03-30T06:19:07.752Z,69.14
2023-03-30T06:22:10.989Z,69.15
2023-03-30T06:25:30.609Z,67.82
2023-03-30T06:28:34.331Z,66.15
2023-03-30T06:31:37.130Z,64.59
2023-03-30T06:35:16.787Z,64.32
2023-03-30T06:38:22.149Z,63.46
2023-03-30T06:41:26.993Z,63.99
2023-03-30T06:44:29.874Z,63.97
2023-03-30T06:47:33.554Z,63.16
2023-03-30T06:50:37.051Z,63.09
2023-03-30T06:53:49.291Z,63.29
2023-03-30T06:56:53.064Z,62.95
2023-03-30T06:59:55.899Z,63.61
2023-03-30T07:02:58.552Z,63.82
2023-03-30T07:06:10.952Z,62.71
2023-03-30T07:09:15.248Z,62.64
2023-03-30T07:12:18.769Z,62.58
2023-03-30T07:15:23.210Z,61.37
2023-03-30T07:18:26.335Z,61.20
2023-03-30T07:21:29.207Z,61.69
2023-03-30T07:24:34.215Z,61.45
2023-03-30T07:27:38.445Z,60.61
2023-03-30T07:30:41.232Z,61.05
2023-03-30T07:33:46.082Z,60.36
2023-03-30T07:36:54.722Z,59.99
2023-03-30T07:40:01.166Z,59.97
2023-03-30T07:43:04.801Z,60.02
2023-03-30T07:46:14.608Z,59.93
2023-03-30T07:49:22.058Z,59.69
2023-03-30T07:52:26.350Z,60.47
2023-03-30T07:55:38.575Z,59.51
2023-03-30T07:58:48.455Z,60.04
2023-03-30T08:01:54.853Z,59.14
2023-03-30T08:05:36.033Z,61.14
2023-03-30T08:08:50.830Z,60.22
2023-03-30T08:11:54.170Z,61.20
2023-03-30T08:14:57.233Z,60.88
2023-03-30T08:18:04.592Z,60.74
2023-03-30T08:21:07.644Z,61.56
2023-03-30T08:24:10.617Z,60.97
2023-03-30T08:27:13.876Z,59.95
2023-03-30T08:30:16.927Z,60.18
2023-03-30T08:33:19.613Z,58.80
2023-03-30T08:36:22.887Z,59.33
2023-03-30T08:39:26.151Z,58.24
2023-03-30T08:42:32.154Z,58.88
2023-03-30T08:45:42.495Z,58.64
2023-03-30T08:48:46.247Z,58.69
2023-03-30T08:51:52.093Z,57.04
2023-03-30T08:54:56.030Z,57.01
2023-03-30T08:58:03.923Z,55.81
2023-03-30T09:01:25.801Z,55.05
2023-03-30T09:04:38.929Z,55.32
2023-03-30T09:08:10.469Z,55.90
2023-03-30T09:11:16.553Z,55.57
2023-03-30T09:14:29.564Z,54.89
2023-03-30T09:17:42.539Z,55.18
2023-03-30T09:20:46.496Z,55.31
2023-03-30T09:23:49.467Z,55.92
2023-03-30T09:27:08.661Z,54.26
2023-03-30T09:30:19.314Z,55.42
2023-03-30T09:33:28.435Z,54.37
2023-03-30T09:36:40.399Z,54.35
2023-03-30T09:39:43.577Z,54.49
2023-03-30T09:42:52.781Z,54.15
2023-03-30T09:45:57.316Z,54.41
2023-03-30T09:49:14.871Z,53.20
2023-03-30T09:52:23.477Z,52.15
2023-03-30T09:55:36.877Z,52.22
2023-03-30T09:58:44.633Z,52.60
2023-03-30T10:01:47.590Z,52.50
2023-03-30T10:04:53.260Z,52.29
2023-03-30T10:08:00.866Z,52.60
2023-03-30T10:11:06.977Z,52.33
2023-03-30T10:14:22.221Z,51.40
2023-03-30T10:17:27.008Z,52.32
2023-03-30T10:20:36.724Z,52.53
2023-03-30T10:23:42.207Z,53.34
2023-03-30T10:26:51.446Z,51.71
2023-03-30T10:29:54.149Z,52.57
2023-03-30T10:33:00.232Z,52.10
2023-03-30T10:36:03.689Z,52.08
2023-03-30T10:39:23.559Z,51.91
2023-03-30T10:42:27.811Z,52.45
2023-03-30T10:45:38.620Z,52.25
2023-03-30T10:49:02.781Z,51.57
2023-03-30T10:52:56.372Z,51.35
2023-03-30T10:56:14.288Z,51.92
2023-03-30T10:59:28.751Z,52.05
2023-03-30T11:03:06.101Z,51.75
2023-03-30T11:06:17.849Z,52.58
2023-03-30T11:09:24.953Z,52.41
2023-03-30T11:12:29.346Z,51.93
2023-03-30T11:15:42.577Z,51.81
2023-03-30T11:18:56.044Z,50.39
2023-03-30T11:22:05.766Z,51.56
2023-03-30T11:25:20.256Z,50.08
2023-03-30T11:28:47.838Z,49.71
2023-03-30T11:31:58.104Z,48.59
2023-03-30T11:35:40.259Z,48.69
2023-03-30T11:38:54.686Z,49.42
2023-03-30T11:42:22.910Z,48.32
2023-03-30T11:45:52.131Z,48.88
2023-03-30T11:49:09.962Z,50.43
2023-03-30T11:52:28.679Z,50.32
2023-03-30T11:55:51.960Z,51.25
2023-03-30T11:59:20.884Z,50.95
2023-03-30T12:02:29.715Z,50.88
2023-03-30T12:05:36.795Z,50.42
2023-03-30T12:09:21.028Z,50.64
2023-03-30T12:12:33.086Z,52.74
2023-03-30T12:15:49.565Z,52.21
2023-03-30T12:18:55.452Z,52.98
2023-03-30T12:22:26.175Z,53.64
2023-03-30T12:25:31.302Z,52.77
2023-03-30T12:29:52.688Z,52.66
2023-03-30T12:32:36.298Z,54.43
2023-03-30T12:35:54.410Z,53.82
2023-03-30T12:38:58.630Z,54.17
2023-03-30T12:42:09.013Z,53.25
2023-03-30T12:45:33.607Z,52.81
2023-03-30T12:48:53.518Z,53.08
2023-03-30T12:52:43.879Z,51.91
2023-03-30T12:56:09.212Z,52.27
2023-03-30T12:59:49.919Z,52.60
2023-03-30T13:03:30.457Z,52.25
2023-03-30T13:06:36.541Z,52.73
2023-03-30T13:09:58.204Z,52.20
2023-03-30T13:13:03.378Z,51.46
2023-03-30T13:16:09.103Z,52.04
2023-03-30T13:19:33.062Z,52.56
2023-03-30T13:22:36.136Z,52.68
2023-03-30T13:25:51.555Z,53.08
2023-03-30T13:28:55.206Z,53.76
2023-03-30T13:32:07.030Z,54.23
2023-03-30T13:35:18.713Z,54.90
2023-03-30T13:38:27.663Z,56.04
2023-03-30T13:42:04.842Z,56.19
2023-03-30T13:45:26.318Z,56.65
2023-03-30T13:48:56.595Z,57.67
2023-03-30T13:52:15.362Z,57.84
2023-03-30T13:55:31.267Z,59.61
2023-03-30T13:58:36.474Z,59.52
2023-03-30T14:01:40.733Z,59.18
2023-03-30T14:04:45.187Z,59.65
2023-03-30T14:07:49.589Z,59.45
2023-03-30T14:10:52.869Z,60.92
2023-03-30T14:13:56.094Z,62.51
2023-03-30T14:17:01.481Z,62.19
2023-03-30T14:20:19.699Z,62.13
2023-03-30T14:23:25.482Z,61.95
2023-03-30T14:26:29.756Z,60.49
2023-03-30T14:29:32.770Z,61.38
2023-03-30T14:32:35.596Z,64.90
2023-03-30T14:35:56.987Z,66.14
2023-03-30T14:38:59.841Z,65.04
2023-03-30T14:42:11.175Z,67.36
2023-03-30T14:45:20.065Z,67.99
2023-03-30T14:48:32.001Z,66.14
2023-03-30T14:51:39.801Z,66.86
2023-03-30T14:54:51.376Z,67.29
2023-03-30T14:58:01.298Z,67.66
2023-03-30T15:01:09.425Z,67.72
2023-03-30T15:04:16.755Z,67.82
2023-03-30T15:07:23.736Z,67.63
2023-03-30T15:10:40.958Z,69.86
2023-03-30T15:13:53.175Z,73.49
2023-03-30T15:16:56.892Z,73.88
2023-03-30T15:20:06.697Z,75.25
2023-03-30T15:23:13.149Z,74.75
2023-03-30T15:26:17.038Z,71.37
2023-03-30T15:29:20.550Z,72.00
2023-03-30T15:32:40.207Z,77.14
2023-03-30T15:35:43.244Z,78.88
2023-03-30T15:38:54.966Z,76.95
2023-03-30T15:41:58.496Z,76.28
2023-03-30T15:45:10.945Z,74.60
2023-03-30T15:48:14.116Z,72.57
2023-03-30T15:51:30.218Z,79.05
2023-03-30T15:54:45.498Z,79.71
2023-03-30T15:57:50.013Z,74.37
2023-03-30T16:00:53.885Z,72.21
2023-03-30T16:03:57.512Z,72.68
2023-03-30T16:07:00.436Z,71.69
2023-03-30T16:10:03.709Z,71.60
2023-03-30T16:13:11.736Z,72.61
2023-03-30T16:16:15.524Z,74.60
2023-03-30T16:19:20.017Z,78.91
2023-03-30T16:22:23.032Z,75.53
2023-03-30T16:25:41.713Z,75.13
2023-03-30T16:28:50.136Z,75.09
2023-03-30T16:31:53.860Z,74.87
2023-03-30T16:34:59.406Z,74.78
2023-03-30T16:38:02.385Z,73.80
2023-03-30T16:41:06.881Z,76.75
2023-03-30T16:44:09.810Z,83.69
2023-03-30T16:47:12.850Z,86.38
2023-03-30T16:50:23.637Z,88.89
2023-03-30T16:53:26.501Z,86.71
2023-03-30T16:56:29.689Z,86.65
2023-03-30T16:59:33.983Z,85.95
2023-03-30T17:02:40.407Z,82.27
2023-03-30T17:05:48.962Z,80.77
2023-03-30T17:08:52.314Z,84.43
2023-03-30T17:11:55.177Z,86.87
2023-03-30T17:14:58.127Z,87.89
2023-03-30T17:18:01.793Z,89.06
2023-03-30T17:21:05.456Z,93.16
2023-03-30T17:24:10.640Z,91.72
2023-03-30T17:27:14.123Z,93.41
2023-03-30T17:30:29.154Z,90.28
2023-03-30T17:33:33.025Z,88.34
2023-03-30T17:36:35.846Z,89.23
2023-03-30T17:39:38.641Z,84.29
2023-03-30T17:42:41.726Z,82.80
2023-03-30T17:45:46.835Z,85.18
2023-03-30T17:48:52.078Z,82.65
2023-03-30T17:51:55.034Z,82.26
2023-03-30T17:54:57.883Z,81.86
2023-03-30T17:58:01.374Z,81.79
2023-03-30T18:01:07.196Z,81.95
2023-03-30T18:04:13.848Z,82.45
2023-03-30T18:07:16.898Z,81.61
2023-03-30T18:10:21.052Z,80.08
2023-03-30T18:13:25.768Z,80.49
2023-03-30T18:16:28.845Z,82.54
2023-03-30T18:19:31.695Z,84.74
2023-03-30T18:22:34.524Z,86.67
2023-03-30T18:25:37.606Z,88.06
2023-03-30T18:28:46.815Z,84.22
2023-03-30T18:31:51.196Z,83.53
2023-03-30T18:34:54.969Z,82.67
2023-03-30T18:37:58.808Z,85.41
2023-03-30T18:41:01.899Z,85.57
2023-03-30T18:44:04.820Z,88.02
2023-03-30T18:47:09.547Z,84.60
2023-03-30T18:50:28.948Z,85.21
2023-03-30T18:53:32.143Z,82.93
2023-03-30T18:56:35.203Z,81.73
2023-03-30T18:59:41.012Z,81.98
2023-03-30T19:02:44.206Z,82.25
2023-03-30T19:05:48.023Z,79.99
2023-03-30T19:08:51.571Z,82.72
2023-03-30T19:11:54.583Z,81.37
2023-03-30T19:14:57.586Z,81.62
2023-03-30T19:18:01.814Z,82.25
2023-03-30T19:21:05.126Z,82.10
2023-03-30T19:24:08.604Z,81.40
2023-03-30T19:27:11.600Z,81.15
2023-03-30T19:30:18.809Z,82.05
2023-03-30T19:33:21.973Z,82.09
2023-03-30T19:36:25.537Z,81.64
2023-03-30T19:39:28.510Z,80.88
2023-03-30T19:42:32.854Z,81.00
2023-03-30T19:45:36.020Z,81.43
2023-03-30T19:48:38.911Z,82.65
2023-03-30T19:51:41.926Z,84.42
2023-03-30T19:54:44.762Z,82.16
2023-03-30T19:57:47.630Z,83.06
2023-03-30T20:00:51.059Z,84.53
2023-03-30T20:03:54.133Z,83.29
2023-03-30T20:06:58.261Z,82.28
2023-03-30T20:10:01.243Z,81.61
2023-03-30T20:13:04.154Z,82.88
2023-03-30T20:16:07.082Z,83.21
2023-03-30T20:19:22.440Z,82.96
2023-03-30T20:22:29.792Z,82.73
2023-03-30T20:25:32.629Z,81.52
2023-03-30T20:28:35.302Z,85.37
2023-03-30T20:31:38.282Z,85.41
2023-03-30T20:34:42.719Z,85.74
2023-03-30T20:37:45.613Z,83.89
2023-03-30T20:40:56.428Z,84.85
2023-03-30T20:44:03.630Z,84.15
2023-03-30T20:47:08.982Z,82.88
2023-03-30T20:50:12.666Z,83.37
2023-03-30T20:53:15.563Z,84.49
2023-03-30T20:56:18.375Z,84.25
2023-03-30T20:59:21.595Z,85.81
2023-03-30T21:02:25.885Z,83.84
2023-03-30T21:05:29.037Z,85.77
2023-03-30T21:08:32.516Z,84.42
2023-03-30T21:11:39.285Z,85.04
2023-03-30T21:14:42.106Z,87.73
2023-03-30T21:17:44.878Z,86.02
2023-03-30T21:20:47.826Z,84.25
2023-03-30T21:23:50.962Z,86.17
2023-03-30T21:26:54.852Z,84.48
2023-03-30T21:29:57.674Z,85.43
2023-03-30T21:33:00.596Z,85.57
2023-03-30T21:36:04.656Z,85.51
2023-03-30T21:39:07.667Z,86.19
2023-03-30T21:42:11.085Z,87.08
2023-03-30T21:45:14.244Z,86.63
2023-03-30T21:48:19.296Z,88.13
2023-03-30T21:51:23.194Z,88.43
2023-03-30T21:54:26.194Z,88.32
2023-03-30T21:57:30.549Z,87.75
2023-03-30T22:00:33.395Z,85.27
2023-03-30T22:03:36.461Z,85.19
2023-03-30T22:06:39.260Z,86.13
2023-03-30T22:09:42.445Z,84.61
2023-03-30T22:12:45.252Z,84.95
2023-03-30T22:16:16.632Z,85.76
2023-03-30T22:19:23.067Z,85.73
2023-03-30T22:22:25.880Z,87.43
2023-03-30T22:25:29.366Z,86.22
2023-03-30T22:28:32.178Z,84.99
2023-03-30T22:31:34.967Z,88.08
2023-03-30T22:34:38.043Z,86.36
2023-03-30T22:37:40.820Z,85.38
2023-03-30T22:40:45.284Z,88.25
2023-03-30T22:43:47.977Z,91.49
2023-03-30T22:46:50.813Z,89.39
2023-03-30T22:49:53.690Z,87.57
2023-03-30T22:52:57.000Z,85.65
2023-03-30T22:56:00.002Z,86.49
2023-03-30T22:59:02.805Z,87.01
2023-03-30T23:02:05.473Z,89.45
2023-03-30T23:05:09.167Z,87.27
2023-03-30T23:08:12.650Z,86.46
2023-03-30T23:11:15.339Z,85.89
2023-03-30T23:14:18.174Z,86.38
2023-03-30T23:17:21.500Z,85.64
2023-03-30T23:20:24.151Z,85.88
2023-03-30T23:23:27.309Z,85.44
2023-03-30T23:26:30.379Z,85.74
2023-03-30T23:29:33.107Z,86.56
2023-03-30T23:32:36.418Z,85.30
2023-03-30T23:35:39.596Z,84.88
2023-03-30T23:38:43.109Z,84.76
2023-03-30T23:41:46.175Z,85.37
2023-03-30T23:44:48.797Z,85.54
2023-03-30T23:47:51.740Z,85.11
2023-03-30T23:50:54.480Z,84.34
2023-03-30T23:54:00.367Z,84.99
2023-03-30T23:57:07.927Z,84.99
